sensor_id;sensor_type;location;lat;lon;timestamp;P1;durP1;ratioP1;P2;durP2;ratioP2
20589;SDS011;10453;50.810;12.540;2024-02-23T00:04:45;1.25;;;0.60;;
20589;SDS011;10453;50.810;12.540;2024-02-23T00:09:03;0.98;;;0.50;;
20589;SDS011;10453;50.810;12.540;2024-02-23T00:13:20;2.38;;;0.70;;
20589;SDS011;10453;50.810;12.540;2024-02-23T00:17:37;1.95;;;0.60;;
20589;SDS011;10453;50.810;12.540;2024-02-23T00:26:14;0.70;;;0.60;;
20589;SDS011;10453;50.810;12.540;2024-02-23T00:30:31;1.30;;;0.60;;
20589;SDS011;10453;50.810;12.540;2024-02-23T00:34:48;1.55;;;0.60;;
20589;SDS011;10453;50.810;12.540;2024-02-23T00:39:06;1.00;;;0.50;;
20589;SDS011;10453;50.810;12.540;2024-02-23T00:43:24;1.10;;;0.57;;
20589;SDS011;10453;50.810;12.540;2024-02-23T00:47:42;1.13;;;0.70;;
20589;SDS011;10453;50.810;12.540;2024-02-23T00:52:00;0.63;;;0.60;;
20589;SDS011;10453;50.810;12.540;2024-02-23T00:56:17;0.47;;;0.40;;
20589;SDS011;10453;50.810;12.540;2024-02-23T01:00:35;0.50;;;0.50;;
20589;SDS011;10453;50.810;12.540;2024-02-23T01:04:52;2.58;;;0.60;;
20589;SDS011;10453;50.810;12.540;2024-02-23T01:09:13;0.88;;;0.68;;
20589;SDS011;10453;50.810;12.540;2024-02-23T01:13:33;0.98;;;0.50;;
20589;SDS011;10453;50.810;12.540;2024-02-23T01:17:50;1.20;;;0.60;;
20589;SDS011;10453;50.810;12.540;2024-02-23T01:22:07;1.25;;;0.60;;
20589;SDS011;10453;50.810;12.540;2024-02-23T01:26:25;1.10;;;0.68;;
20589;SDS011;10453;50.810;12.540;2024-02-23T01:30:42;0.50;;;0.50;;
20589;SDS011;10453;50.810;12.540;2024-02-23T01:35:03;2.15;;;0.70;;
20589;SDS011;10453;50.810;12.540;2024-02-23T01:39:21;0.53;;;0.40;;
20589;SDS011;10453;50.810;12.540;2024-02-23T01:43:38;1.10;;;0.70;;
20589;SDS011;10453;50.810;12.540;2024-02-23T01:47:56;1.23;;;0.70;;
20589;SDS011;10453;50.810;12.540;2024-02-23T01:52:14;0.77;;;0.50;;
20589;SDS011;10453;50.810;12.540;2024-02-23T01:56:33;0.47;;;0.38;;
20589;SDS011;10453;50.810;12.540;2024-02-23T02:00:53;4.65;;;0.70;;
20589;SDS011;10453;50.810;12.540;2024-02-23T02:22:35;0.60;;;0.50;;
20589;SDS011;10453;50.810;12.540;2024-02-23T02:26:52;2.38;;;0.50;;
20589;SDS011;10453;50.810;12.540;2024-02-23T02:31:10;1.25;;;0.30;;
20589;SDS011;10453;50.810;12.540;2024-02-23T02:35:27;0.57;;;0.50;;
20589;SDS011;10453;50.810;12.540;2024-02-23T02:39:44;0.50;;;0.40;;
20589;SDS011;10453;50.810;12.540;2024-02-23T02:44:02;1.55;;;0.43;;
20589;SDS011;10453;50.810;12.540;2024-02-23T02:48:19;1.85;;;0.40;;
20589;SDS011;10453;50.810;12.540;2024-02-23T02:52:37;3.22;;;0.47;;
20589;SDS011;10453;50.810;12.540;2024-02-23T02:56:54;0.35;;;0.35;;
20589;SDS011;10453;50.810;12.540;2024-02-23T03:01:11;0.90;;;0.40;;
20589;SDS011;10453;50.810;12.540;2024-02-23T03:05:29;3.70;;;0.57;;
20589;SDS011;10453;50.810;12.540;2024-02-23T03:09:47;0.63;;;0.40;;
20589;SDS011;10453;50.810;12.540;2024-02-23T03:14:06;2.80;;;0.45;;
20589;SDS011;10453;50.810;12.540;2024-02-23T03:18:23;1.13;;;0.40;;
20589;SDS011;10453;50.810;12.540;2024-02-23T03:22:41;3.38;;;0.68;;
20589;SDS011;10453;50.810;12.540;2024-02-23T03:26:58;2.97;;;0.43;;
20589;SDS011;10453;50.810;12.540;2024-02-23T03:31:16;0.50;;;0.30;;
20589;SDS011;10453;50.810;12.540;2024-02-23T03:35:34;1.05;;;0.40;;
20589;SDS011;10453;50.810;12.540;2024-02-23T03:39:51;1.42;;;0.80;;
20589;SDS011;10453;50.810;12.540;2024-02-23T03:44:08;0.60;;;0.35;;
20589;SDS011;10453;50.810;12.540;2024-02-23T03:54:16;2.60;;;0.50;;
20589;SDS011;10453;50.810;12.540;2024-02-23T03:58:33;2.05;;;0.60;;
20589;SDS011;10453;50.810;12.540;2024-02-23T04:02:51;0.82;;;0.70;;
20589;SDS011;10453;50.810;12.540;2024-02-23T04:07:13;0.52;;;0.50;;
20589;SDS011;10453;50.810;12.540;2024-02-23T04:11:31;1.55;;;0.50;;
20589;SDS011;10453;50.810;12.540;2024-02-23T04:15:48;2.53;;;0.50;;
20589;SDS011;10453;50.810;12.540;2024-02-23T04:20:06;0.70;;;0.50;;
20589;SDS011;10453;50.810;12.540;2024-02-23T04:24:24;1.15;;;0.50;;
20589;SDS011;10453;50.810;12.540;2024-02-23T04:28:42;1.25;;;0.40;;
20589;SDS011;10453;50.810;12.540;2024-02-23T04:33:00;2.67;;;0.80;;
20589;SDS011;10453;50.810;12.540;2024-02-23T04:37:17;1.80;;;0.57;;
20589;SDS011;10453;50.810;12.540;2024-02-23T04:41:34;2.28;;;0.77;;
20589;SDS011;10453;50.810;12.540;2024-02-23T04:45:52;2.65;;;0.50;;
20589;SDS011;10453;50.810;12.540;2024-02-23T04:50:09;3.63;;;0.80;;
20589;SDS011;10453;50.810;12.540;2024-02-23T04:54:27;1.93;;;0.60;;
20589;SDS011;10453;50.810;12.540;2024-02-23T04:58:44;1.73;;;0.50;;
20589;SDS011;10453;50.810;12.540;2024-02-23T05:03:01;1.80;;;0.45;;
20589;SDS011;10453;50.810;12.540;2024-02-23T05:07:20;2.97;;;0.55;;
20589;SDS011;10453;50.810;12.540;2024-02-23T05:11:38;7.15;;;1.27;;
20589;SDS011;10453;50.810;12.540;2024-02-23T05:15:55;2.67;;;0.75;;
20589;SDS011;10453;50.810;12.540;2024-02-23T05:20:13;4.43;;;0.70;;
20589;SDS011;10453;50.810;12.540;2024-02-23T05:24:31;1.20;;;0.60;;
20589;SDS011;10453;50.810;12.540;2024-02-23T05:28:48;1.77;;;0.50;;
20589;SDS011;10453;50.810;12.540;2024-02-23T05:33:06;1.45;;;0.60;;
20589;SDS011;10453;50.810;12.540;2024-02-23T05:37:23;1.53;;;0.60;;
20589;SDS011;10453;50.810;12.540;2024-02-23T05:41:41;1.45;;;0.63;;
20589;SDS011;10453;50.810;12.540;2024-02-23T05:45:58;1.55;;;0.50;;
20589;SDS011;10453;50.810;12.540;2024-02-23T05:50:16;1.88;;;0.50;;
20589;SDS011;10453;50.810;12.540;2024-02-23T05:54:33;0.82;;;0.40;;
20589;SDS011;10453;50.810;12.540;2024-02-23T05:58:50;2.63;;;0.70;;
20589;SDS011;10453;50.810;12.540;2024-02-23T06:03:08;1.42;;;0.68;;
20589;SDS011;10453;50.810;12.540;2024-02-23T06:07:26;1.05;;;0.50;;
20589;SDS011;10453;50.810;12.540;2024-02-23T06:11:46;1.90;;;0.50;;
20589;SDS011;10453;50.810;12.540;2024-02-23T06:16:04;1.50;;;0.70;;
20589;SDS011;10453;50.810;12.540;2024-02-23T06:24:39;1.63;;;0.60;;
20589;SDS011;10453;50.810;12.540;2024-02-23T06:28:56;1.13;;;0.47;;
20589;SDS011;10453;50.810;12.540;2024-02-23T06:33:14;4.82;;;0.52;;
20589;SDS011;10453;50.810;12.540;2024-02-23T06:37:32;3.10;;;0.63;;
20589;SDS011;10453;50.810;12.540;2024-02-23T06:41:49;1.63;;;0.63;;
20589;SDS011;10453;50.810;12.540;2024-02-23T06:46:07;1.85;;;0.60;;
20589;SDS011;10453;50.810;12.540;2024-02-23T06:50:25;2.10;;;0.50;;
20589;SDS011;10453;50.810;12.540;2024-02-23T06:54:42;1.23;;;0.47;;
20589;SDS011;10453;50.810;12.540;2024-02-23T06:59:00;1.63;;;0.55;;
20589;SDS011;10453;50.810;12.540;2024-02-23T07:03:17;5.35;;;0.60;;
20589;SDS011;10453;50.810;12.540;2024-02-23T07:07:34;2.72;;;0.70;;
20589;SDS011;10453;50.810;12.540;2024-02-23T07:11:52;1.42;;;0.50;;
20589;SDS011;10453;50.810;12.540;2024-02-23T07:16:09;4.15;;;0.85;;
20589;SDS011;10453;50.810;12.540;2024-02-23T07:20:28;1.58;;;1.00;;
20589;SDS011;10453;50.810;12.540;2024-02-23T07:24:46;4.97;;;0.50;;
20589;SDS011;10453;50.810;12.540;2024-02-23T07:29:03;2.38;;;0.55;;
20589;SDS011;10453;50.810;12.540;2024-02-23T07:33:21;3.65;;;0.70;;
20589;SDS011;10453;50.810;12.540;2024-02-23T07:37:38;2.03;;;0.80;;
20589;SDS011;10453;50.810;12.540;2024-02-23T07:41:56;2.97;;;0.90;;
20589;SDS011;10453;50.810;12.540;2024-02-23T07:46:13;1.90;;;0.60;;
20589;SDS011;10453;50.810;12.540;2024-02-23T07:50:30;1.95;;;0.70;;
20589;SDS011;10453;50.810;12.540;2024-02-23T07:54:48;3.08;;;0.90;;
20589;SDS011;10453;50.810;12.540;2024-02-23T07:59:05;3.22;;;0.75;;
20589;SDS011;10453;50.810;12.540;2024-02-23T08:03:22;5.10;;;0.80;;
20589;SDS011;10453;50.810;12.540;2024-02-23T08:07:39;1.35;;;0.70;;
20589;SDS011;10453;50.810;12.540;2024-02-23T08:11:56;1.77;;;0.70;;
20589;SDS011;10453;50.810;12.540;2024-02-23T08:16:15;2.30;;;0.60;;
20589;SDS011;10453;50.810;12.540;2024-02-23T08:20:34;2.15;;;0.63;;
20589;SDS011;10453;50.810;12.540;2024-02-23T08:24:51;4.07;;;0.70;;
20589;SDS011;10453;50.810;12.540;2024-02-23T08:29:08;2.42;;;0.85;;
20589;SDS011;10453;50.810;12.540;2024-02-23T08:33:26;1.85;;;0.60;;
20589;SDS011;10453;50.810;12.540;2024-02-23T08:37:43;2.35;;;0.60;;
20589;SDS011;10453;50.810;12.540;2024-02-23T08:42:00;1.05;;;0.60;;
20589;SDS011;10453;50.810;12.540;2024-02-23T08:46:18;1.83;;;0.70;;
20589;SDS011;10453;50.810;12.540;2024-02-23T08:50:35;2.50;;;0.90;;
20589;SDS011;10453;50.810;12.540;2024-02-23T08:54:55;2.47;;;0.70;;
20589;SDS011;10453;50.810;12.540;2024-02-23T08:59:12;5.28;;;0.90;;
20589;SDS011;10453;50.810;12.540;2024-02-23T09:03:30;5.15;;;0.75;;
20589;SDS011;10453;50.810;12.540;2024-02-23T09:07:48;3.40;;;0.90;;
20589;SDS011;10453;50.810;12.540;2024-02-23T09:12:05;3.22;;;0.75;;
20589;SDS011;10453;50.810;12.540;2024-02-23T09:16:27;2.80;;;0.70;;
20589;SDS011;10453;50.810;12.540;2024-02-23T09:20:44;1.83;;;0.50;;
20589;SDS011;10453;50.810;12.540;2024-02-23T09:25:02;1.73;;;0.60;;
20589;SDS011;10453;50.810;12.540;2024-02-23T09:29:22;2.63;;;0.43;;
20589;SDS011;10453;50.810;12.540;2024-02-23T09:33:39;1.20;;;0.60;;
20589;SDS011;10453;50.810;12.540;2024-02-23T09:37:56;1.67;;;0.60;;
20589;SDS011;10453;50.810;12.540;2024-02-23T09:42:13;2.78;;;0.52;;
20589;SDS011;10453;50.810;12.540;2024-02-23T09:46:31;0.93;;;0.43;;
20589;SDS011;10453;50.810;12.540;2024-02-23T09:50:50;1.03;;;0.40;;
20589;SDS011;10453;50.810;12.540;2024-02-23T09:55:09;2.05;;;0.60;;
20589;SDS011;10453;50.810;12.540;2024-02-23T09:59:26;0.80;;;0.52;;
20589;SDS011;10453;50.810;12.540;2024-02-23T10:03:48;2.70;;;0.60;;
20589;SDS011;10453;50.810;12.540;2024-02-23T10:08:05;2.30;;;0.90;;
20589;SDS011;10453;50.810;12.540;2024-02-23T10:12:23;2.53;;;0.77;;
20589;SDS011;10453;50.810;12.540;2024-02-23T10:16:40;3.13;;;0.50;;
20589;SDS011;10453;50.810;12.540;2024-02-23T10:20:58;2.85;;;0.68;;
20589;SDS011;10453;50.810;12.540;2024-02-23T10:25:15;4.97;;;0.60;;
20589;SDS011;10453;50.810;12.540;2024-02-23T10:29:34;2.10;;;0.75;;
20589;SDS011;10453;50.810;12.540;2024-02-23T10:33:51;2.85;;;0.50;;
20589;SDS011;10453;50.810;12.540;2024-02-23T10:38:09;3.08;;;0.70;;
20589;SDS011;10453;50.810;12.540;2024-02-23T10:42:29;2.08;;;0.82;;
20589;SDS011;10453;50.810;12.540;2024-02-23T10:46:50;3.65;;;0.60;;
20589;SDS011;10453;50.810;12.540;2024-02-23T10:51:10;4.38;;;0.70;;
20589;SDS011;10453;50.810;12.540;2024-02-23T10:55:36;1.33;;;0.50;;
20589;SDS011;10453;50.810;12.540;2024-02-23T10:59:57;2.67;;;0.98;;
20589;SDS011;10453;50.810;12.540;2024-02-23T11:04:18;3.80;;;0.83;;
20589;SDS011;10453;50.810;12.540;2024-02-23T11:08:36;2.50;;;0.57;;
20589;SDS011;10453;50.810;12.540;2024-02-23T11:12:58;5.25;;;1.05;;
20589;SDS011;10453;50.810;12.540;2024-02-23T11:17:17;2.20;;;0.70;;
20589;SDS011;10453;50.810;12.540;2024-02-23T11:21:37;5.03;;;1.02;;
20589;SDS011;10453;50.810;12.540;2024-02-23T11:25:58;3.40;;;0.82;;
20589;SDS011;10453;50.810;12.540;2024-02-23T11:30:21;6.97;;;1.02;;
20589;SDS011;10453;50.810;12.540;2024-02-23T11:34:38;2.15;;;0.80;;
20589;SDS011;10453;50.810;12.540;2024-02-23T11:38:56;2.28;;;0.65;;
20589;SDS011;10453;50.810;12.540;2024-02-23T11:43:15;2.72;;;0.70;;
20589;SDS011;10453;50.810;12.540;2024-02-23T11:47:33;3.60;;;0.90;;
20589;SDS011;10453;50.810;12.540;2024-02-23T11:51:51;4.90;;;0.80;;
20589;SDS011;10453;50.810;12.540;2024-02-23T11:56:08;2.75;;;0.90;;
20589;SDS011;10453;50.810;12.540;2024-02-23T12:00:27;4.18;;;0.98;;
20589;SDS011;10453;50.810;12.540;2024-02-23T12:04:46;2.78;;;1.20;;
20589;SDS011;10453;50.810;12.540;2024-02-23T12:09:04;1.70;;;1.10;;
20589;SDS011;10453;50.810;12.540;2024-02-23T12:13:22;3.45;;;1.13;;
20589;SDS011;10453;50.810;12.540;2024-02-23T12:17:48;2.93;;;1.90;;
20589;SDS011;10453;50.810;12.540;2024-02-23T12:22:07;5.00;;;2.47;;
20589;SDS011;10453;50.810;12.540;2024-02-23T12:26:24;2.30;;;0.90;;
20589;SDS011;10453;50.810;12.540;2024-02-23T12:30:42;3.00;;;0.85;;
20589;SDS011;10453;50.810;12.540;2024-02-23T12:34:59;1.23;;;0.90;;
20589;SDS011;10453;50.810;12.540;2024-02-23T12:39:16;5.00;;;1.38;;
20589;SDS011;10453;50.810;12.540;2024-02-23T12:43:33;3.72;;;1.13;;
20589;SDS011;10453;50.810;12.540;2024-02-23T12:47:54;3.00;;;1.08;;
20589;SDS011;10453;50.810;12.540;2024-02-23T12:52:11;2.92;;;0.88;;
20589;SDS011;10453;50.810;12.540;2024-02-23T12:56:29;3.63;;;1.25;;
20589;SDS011;10453;50.810;12.540;2024-02-23T13:00:48;3.10;;;1.02;;
20589;SDS011;10453;50.810;12.540;2024-02-23T13:05:06;3.38;;;1.10;;
20589;SDS011;10453;50.810;12.540;2024-02-23T13:09:23;3.17;;;1.60;;
20589;SDS011;10453;50.810;12.540;2024-02-23T13:13:41;3.80;;;1.23;;
20589;SDS011;10453;50.810;12.540;2024-02-23T13:17:59;5.15;;;1.15;;
20589;SDS011;10453;50.810;12.540;2024-02-23T13:22:19;4.25;;;1.20;;
20589;SDS011;10453;50.810;12.540;2024-02-23T13:26:36;2.20;;;0.73;;
20589;SDS011;10453;50.810;12.540;2024-02-23T13:30:53;3.15;;;1.00;;
20589;SDS011;10453;50.810;12.540;2024-02-23T13:35:11;3.17;;;1.02;;
20589;SDS011;10453;50.810;12.540;2024-02-23T13:39:29;1.63;;;0.70;;
20589;SDS011;10453;50.810;12.540;2024-02-23T13:43:46;4.70;;;0.90;;
20589;SDS011;10453;50.810;12.540;2024-02-23T13:48:03;2.50;;;0.80;;
20589;SDS011;10453;50.810;12.540;2024-02-23T13:52:22;4.32;;;0.88;;
20589;SDS011;10453;50.810;12.540;2024-02-23T13:56:40;1.33;;;0.55;;
20589;SDS011;10453;50.810;12.540;2024-02-23T14:00:57;4.68;;;0.80;;
20589;SDS011;10453;50.810;12.540;2024-02-23T14:05:15;2.63;;;0.85;;
20589;SDS011;10453;50.810;12.540;2024-02-23T14:09:34;5.43;;;1.10;;
20589;SDS011;10453;50.810;12.540;2024-02-23T14:13:52;6.88;;;1.25;;
20589;SDS011;10453;50.810;12.540;2024-02-23T14:18:10;4.63;;;0.70;;
20589;SDS011;10453;50.810;12.540;2024-02-23T14:22:28;10.43;;;1.25;;
20589;SDS011;10453;50.810;12.540;2024-02-23T14:26:45;3.88;;;1.00;;
20589;SDS011;10453;50.810;12.540;2024-02-23T14:31:03;2.60;;;1.07;;
20589;SDS011;10453;50.810;12.540;2024-02-23T14:35:20;3.97;;;0.90;;
20589;SDS011;10453;50.810;12.540;2024-02-23T14:39:38;3.38;;;0.98;;
20589;SDS011;10453;50.810;12.540;2024-02-23T14:43:55;4.53;;;1.10;;
20589;SDS011;10453;50.810;12.540;2024-02-23T14:48:12;5.20;;;0.90;;
20589;SDS011;10453;50.810;12.540;2024-02-23T14:52:30;2.57;;;1.00;;
20589;SDS011;10453;50.810;12.540;2024-02-23T14:56:47;3.78;;;0.90;;
20589;SDS011;10453;50.810;12.540;2024-02-23T15:01:05;5.15;;;1.13;;
20589;SDS011;10453;50.810;12.540;2024-02-23T15:05:23;5.00;;;0.88;;
20589;SDS011;10453;50.810;12.540;2024-02-23T15:09:40;3.88;;;1.20;;
20589;SDS011;10453;50.810;12.540;2024-02-23T15:13:58;3.72;;;1.15;;
20589;SDS011;10453;50.810;12.540;2024-02-23T15:18:15;4.53;;;1.33;;
20589;SDS011;10453;50.810;12.540;2024-02-23T15:22:33;2.95;;;1.25;;
20589;SDS011;10453;50.810;12.540;2024-02-23T15:26:50;4.05;;;1.40;;
20589;SDS011;10453;50.810;12.540;2024-02-23T15:31:08;2.35;;;1.08;;
20589;SDS011;10453;50.810;12.540;2024-02-23T15:35:25;4.20;;;1.27;;
20589;SDS011;10453;50.810;12.540;2024-02-23T15:44:02;4.45;;;1.40;;
20589;SDS011;10453;50.810;12.540;2024-02-23T15:48:19;2.55;;;1.30;;
20589;SDS011;10453;50.810;12.540;2024-02-23T15:52:37;3.88;;;1.20;;
20589;SDS011;10453;50.810;12.540;2024-02-23T15:56:57;5.65;;;1.15;;
20589;SDS011;10453;50.810;12.540;2024-02-23T16:01:14;6.38;;;1.65;;
20589;SDS011;10453;50.810;12.540;2024-02-23T16:05:31;2.83;;;1.20;;
20589;SDS011;10453;50.810;12.540;2024-02-23T16:09:49;4.95;;;1.00;;
20589;SDS011;10453;50.810;12.540;2024-02-23T16:14:06;2.63;;;1.10;;
20589;SDS011;10453;50.810;12.540;2024-02-23T16:18:23;4.68;;;1.63;;
20589;SDS011;10453;50.810;12.540;2024-02-23T16:22:42;3.10;;;1.27;;
20589;SDS011;10453;50.810;12.540;2024-02-23T16:27:00;3.25;;;1.23;;
20589;SDS011;10453;50.810;12.540;2024-02-23T16:31:17;2.97;;;1.42;;
20589;SDS011;10453;50.810;12.540;2024-02-23T16:35:35;5.93;;;1.08;;
20589;SDS011;10453;50.810;12.540;2024-02-23T16:39:52;2.60;;;1.67;;
20589;SDS011;10453;50.810;12.540;2024-02-23T16:44:10;4.25;;;1.15;;
20589;SDS011;10453;50.810;12.540;2024-02-23T16:48:29;6.60;;;1.45;;
20589;SDS011;10453;50.810;12.540;2024-02-23T16:52:47;5.57;;;1.48;;
20589;SDS011;10453;50.810;12.540;2024-02-23T16:57:04;4.10;;;2.38;;
20589;SDS011;10453;50.810;12.540;2024-02-23T17:01:22;16.85;;;7.53;;
20589;SDS011;10453;50.810;12.540;2024-02-23T17:05:39;7.25;;;3.30;;
20589;SDS011;10453;50.810;12.540;2024-02-23T17:09:57;6.37;;;3.27;;
20589;SDS011;10453;50.810;12.540;2024-02-23T17:14:14;4.00;;;2.60;;
20589;SDS011;10453;50.810;12.540;2024-02-23T17:18:32;7.75;;;3.70;;
20589;SDS011;10453;50.810;12.540;2024-02-23T17:22:49;12.45;;;6.20;;
20589;SDS011;10453;50.810;12.540;2024-02-23T17:27:07;6.82;;;2.10;;
20589;SDS011;10453;50.810;12.540;2024-02-23T17:35:42;5.18;;;2.03;;
20589;SDS011;10453;50.810;12.540;2024-02-23T17:40:00;4.47;;;2.78;;
20589;SDS011;10453;50.810;12.540;2024-02-23T17:44:17;7.70;;;4.35;;
20589;SDS011;10453;50.810;12.540;2024-02-23T17:48:35;10.27;;;7.55;;
20589;SDS011;10453;50.810;12.540;2024-02-23T17:52:53;8.40;;;3.97;;
20589;SDS011;10453;50.810;12.540;2024-02-23T17:57:10;7.10;;;2.70;;
20589;SDS011;10453;50.810;12.540;2024-02-23T18:01:27;5.90;;;2.20;;
20589;SDS011;10453;50.810;12.540;2024-02-23T18:05:44;7.75;;;2.38;;
20589;SDS011;10453;50.810;12.540;2024-02-23T18:10:02;3.83;;;2.57;;
20589;SDS011;10453;50.810;12.540;2024-02-23T18:14:20;5.32;;;2.78;;
20589;SDS011;10453;50.810;12.540;2024-02-23T18:18:37;6.53;;;3.22;;
20589;SDS011;10453;50.810;12.540;2024-02-23T18:22:55;6.28;;;3.65;;
20589;SDS011;10453;50.810;12.540;2024-02-23T18:27:13;5.30;;;3.38;;
20589;SDS011;10453;50.810;12.540;2024-02-23T18:31:30;6.57;;;2.90;;
20589;SDS011;10453;50.810;12.540;2024-02-23T18:35:48;5.07;;;2.38;;
20589;SDS011;10453;50.810;12.540;2024-02-23T18:40:05;5.88;;;2.78;;
20589;SDS011;10453;50.810;12.540;2024-02-23T18:44:23;7.17;;;2.43;;
20589;SDS011;10453;50.810;12.540;2024-02-23T18:48:41;9.27;;;5.57;;
20589;SDS011;10453;50.810;12.540;2024-02-23T18:52:58;10.63;;;5.00;;
20589;SDS011;10453;50.810;12.540;2024-02-23T18:57:16;15.25;;;7.75;;
20589;SDS011;10453;50.810;12.540;2024-02-23T19:01:35;6.22;;;2.83;;
20589;SDS011;10453;50.810;12.540;2024-02-23T19:05:52;7.20;;;4.28;;
20589;SDS011;10453;50.810;12.540;2024-02-23T19:10:10;9.88;;;4.45;;
20589;SDS011;10453;50.810;12.540;2024-02-23T19:14:27;8.43;;;3.88;;
20589;SDS011;10453;50.810;12.540;2024-02-23T19:18:46;9.55;;;4.28;;
20589;SDS011;10453;50.810;12.540;2024-02-23T19:23:04;5.75;;;3.88;;
20589;SDS011;10453;50.810;12.540;2024-02-23T19:27:21;5.57;;;2.93;;
20589;SDS011;10453;50.810;12.540;2024-02-23T19:31:39;4.32;;;2.42;;
20589;SDS011;10453;50.810;12.540;2024-02-23T19:35:56;6.93;;;2.30;;
20589;SDS011;10453;50.810;12.540;2024-02-23T19:40:13;4.32;;;2.35;;
20589;SDS011;10453;50.810;12.540;2024-02-23T19:44:38;4.32;;;2.40;;
20589;SDS011;10453;50.810;12.540;2024-02-23T19:48:57;4.93;;;2.60;;
20589;SDS011;10453;50.810;12.540;2024-02-23T19:53:15;5.38;;;2.88;;
20589;SDS011;10453;50.810;12.540;2024-02-23T19:57:32;4.78;;;3.22;;
20589;SDS011;10453;50.810;12.540;2024-02-23T20:01:50;6.32;;;2.58;;
20589;SDS011;10453;50.810;12.540;2024-02-23T20:06:07;5.10;;;2.75;;
20589;SDS011;10453;50.810;12.540;2024-02-23T20:10:30;4.93;;;2.38;;
20589;SDS011;10453;50.810;12.540;2024-02-23T20:14:47;4.88;;;3.00;;
20589;SDS011;10453;50.810;12.540;2024-02-23T20:19:05;3.45;;;2.28;;
20589;SDS011;10453;50.810;12.540;2024-02-23T20:23:22;4.50;;;2.50;;
20589;SDS011;10453;50.810;12.540;2024-02-23T20:27:40;5.78;;;2.80;;
20589;SDS011;10453;50.810;12.540;2024-02-23T20:31:58;3.90;;;2.47;;
20589;SDS011;10453;50.810;12.540;2024-02-23T20:36:16;5.95;;;3.45;;
20589;SDS011;10453;50.810;12.540;2024-02-23T20:40:33;4.57;;;3.05;;
20589;SDS011;10453;50.810;12.540;2024-02-23T20:44:50;5.82;;;3.33;;
20589;SDS011;10453;50.810;12.540;2024-02-23T20:49:07;5.60;;;3.30;;
20589;SDS011;10453;50.810;12.540;2024-02-23T20:53:25;5.45;;;2.83;;
20589;SDS011;10453;50.810;12.540;2024-02-23T20:57:42;5.30;;;2.80;;
20589;SDS011;10453;50.810;12.540;2024-02-23T21:01:59;6.45;;;2.70;;
20589;SDS011;10453;50.810;12.540;2024-02-23T21:06:17;5.60;;;2.63;;
20589;SDS011;10453;50.810;12.540;2024-02-23T21:10:35;6.57;;;3.15;;
20589;SDS011;10453;50.810;12.540;2024-02-23T21:14:53;7.20;;;3.78;;
20589;SDS011;10453;50.810;12.540;2024-02-23T21:19:10;5.82;;;3.03;;
20589;SDS011;10453;50.810;12.540;2024-02-23T21:23:27;4.22;;;2.47;;
20589;SDS011;10453;50.810;12.540;2024-02-23T21:27:44;4.78;;;2.50;;
20589;SDS011;10453;50.810;12.540;2024-02-23T21:32:02;4.47;;;2.00;;
20589;SDS011;10453;50.810;12.540;2024-02-23T21:36:20;3.47;;;2.22;;
20589;SDS011;10453;50.810;12.540;2024-02-23T21:40:37;4.68;;;2.53;;
20589;SDS011;10453;50.810;12.540;2024-02-23T21:44:55;4.10;;;2.33;;
20589;SDS011;10453;50.810;12.540;2024-02-23T21:49:12;3.47;;;1.92;;
20589;SDS011;10453;50.810;12.540;2024-02-23T21:53:30;5.00;;;1.60;;
20589;SDS011;10453;50.810;12.540;2024-02-23T21:57:47;3.80;;;2.33;;
20589;SDS011;10453;50.810;12.540;2024-02-23T22:02:05;3.40;;;2.00;;
20589;SDS011;10453;50.810;12.540;2024-02-23T22:06:23;3.80;;;2.23;;
20589;SDS011;10453;50.810;12.540;2024-02-23T22:10:40;5.83;;;2.87;;
20589;SDS011;10453;50.810;12.540;2024-02-23T22:14:58;4.70;;;2.23;;
20589;SDS011;10453;50.810;12.540;2024-02-23T22:19:16;5.00;;;2.38;;
20589;SDS011;10453;50.810;12.540;2024-02-23T22:23:33;4.38;;;1.98;;
20589;SDS011;10453;50.810;12.540;2024-02-23T22:27:51;5.33;;;2.07;;
20589;SDS011;10453;50.810;12.540;2024-02-23T22:32:08;7.47;;;2.00;;
20589;SDS011;10453;50.810;12.540;2024-02-23T22:36:26;3.35;;;1.98;;
20589;SDS011;10453;50.810;12.540;2024-02-23T22:40:43;7.63;;;1.75;;
20589;SDS011;10453;50.810;12.540;2024-02-23T22:45:01;3.72;;;1.95;;
20589;SDS011;10453;50.810;12.540;2024-02-23T22:49:19;6.22;;;2.22;;
20589;SDS011;10453;50.810;12.540;2024-02-23T22:53:36;4.97;;;1.90;;
20589;SDS011;10453;50.810;12.540;2024-02-23T22:57:54;3.60;;;2.10;;
20589;SDS011;10453;50.810;12.540;2024-02-23T23:02:11;3.90;;;2.10;;
20589;SDS011;10453;50.810;12.540;2024-02-23T23:06:29;4.47;;;2.13;;
20589;SDS011;10453;50.810;12.540;2024-02-23T23:10:51;7.13;;;2.35;;
20589;SDS011;10453;50.810;12.540;2024-02-23T23:15:09;3.53;;;2.10;;
20589;SDS011;10453;50.810;12.540;2024-02-23T23:19:26;3.92;;;2.30;;
20589;SDS011;10453;50.810;12.540;2024-02-23T23:23:44;7.30;;;2.37;;
20589;SDS011;10453;50.810;12.540;2024-02-23T23:28:01;5.18;;;2.08;;
20589;SDS011;10453;50.810;12.540;2024-02-23T23:32:19;3.75;;;2.50;;
20589;SDS011;10453;50.810;12.540;2024-02-23T23:36:37;4.78;;;2.35;;
20589;SDS011;10453;50.810;12.540;2024-02-23T23:40:54;5.50;;;2.28;;
20589;SDS011;10453;50.810;12.540;2024-02-23T23:45:11;4.63;;;2.50;;
20589;SDS011;10453;50.810;12.540;2024-02-23T23:49:29;5.63;;;2.60;;
20589;SDS011;10453;50.810;12.540;2024-02-23T23:53:46;5.28;;;3.50;;
20589;SDS011;10453;50.810;12.540;2024-02-23T23:58:05;8.45;;;5.05;;
